Terminal Aerodrome Forecast
Issued by NWS

Home | Current Version | Previous Version | Text Only | Print | Product List | Glossary On
Versions: 1 2 3 4 5 6 7 8 9 10 11 12 13 14 15 16 17 18 19
935
FTUS43 KOAX 140526 CCA
TAFSNY
TAF COR
KSNY 140526Z 1406/1506 31014KT P6SM BKN120
     FM141700 29018G28KT P6SM BKN100
     FM150100 31012KT P6SM BKN100=

USA.gov is the U.S. government's official web portal to all federal, state and local government web resources and services.